Time;durP1;ratioP1;P1;durP2;ratioP2;P2;SDS_P1;SDS_P2;PMS_P1;PMS_P2;Temp;Humidity;BMP_temperature;BMP_pressure;BME280_temperature;BME280_humidity;BME280_pressure;Samples;Min_cycle;Max_cycle;Signal;HPM_P1;HPM_P2
2023/10/28 00:02:57;;;;;;;1.70;1.60;;;;;;;;;;6306100;28;20188;-65
2023/10/28 00:05:58;;;;;;;3.33;1.77;;;;;;;;;;6303461;28;20290;-65
2023/10/28 00:08:59;;;;;;;2.60;1.67;;;;;;;;;;6298449;28;20378;-65
2023/10/28 00:12:00;;;;;;;1.73;1.50;;;;;;;;;;6297544;28;20287;-65
2023/10/28 00:15:02;;;;;;;2.13;1.60;;;;;;;;;;6284887;28;20283;-65
2023/10/28 00:18:03;;;;;;;6.17;2.07;;;;;;;;;;6297629;28;20319;-65
2023/10/28 00:21:07;;;;;;;3.00;1.77;;;;;;;;;;6296753;28;20227;-65
2023/10/28 00:24:10;;;;;;;3.77;1.67;;;;;;;;;;6294010;28;20201;-65
2023/10/28 00:27:12;;;;;;;2.17;2.00;;;;;;;;;;6299623;28;20201;-65
2023/10/28 00:30:13;;;;;;;3.83;2.30;;;;;;;;;;6301372;28;20305;-65
2023/10/28 00:33:15;;;;;;;5.10;1.90;;;;;;;;;;6295925;28;20212;-65
2023/10/28 00:36:16;;;;;;;4.83;1.70;;;;;;;;;;6298352;28;20239;-65
2023/10/28 00:39:18;;;;;;;1.97;1.87;;;;;;;;;;6306630;28;20257;-65
2023/10/28 00:42:20;;;;;;;3.90;1.93;;;;;;;;;;6299726;28;20198;-65
2023/10/28 00:45:21;;;;;;;2.33;1.97;;;;;;;;;;6313509;28;20188;-65
2023/10/28 00:48:23;;;;;;;4.10;2.10;;;;;;;;;;6303182;28;20184;-65
2023/10/28 00:51:24;;;;;;;1.80;1.57;;;;;;;;;;6300926;28;20235;-65
2023/10/28 00:54:26;;;;;;;3.37;2.10;;;;;;;;;;6297823;28;20192;-66
2023/10/28 00:57:27;;;;;;;2.07;1.60;;;;;;;;;;6318826;28;20297;-65
2023/10/28 01:00:29;;;;;;;3.87;1.57;;;;;;;;;;6304738;28;20199;-65
2023/10/28 01:03:30;;;;;;;1.70;1.43;;;;;;;;;;6312284;28;20181;-65
2023/10/28 01:06:31;;;;;;;4.77;1.90;;;;;;;;;;6288445;28;20200;-65
2023/10/28 01:09:32;;;;;;;2.37;1.60;;;;;;;;;;6301860;28;20198;-65
2023/10/28 01:12:33;;;;;;;1.87;1.57;;;;;;;;;;6320364;28;20187;-65
2023/10/28 01:15:35;;;;;;;2.17;1.70;;;;;;;;;;6302449;28;20226;-65
2023/10/28 01:18:37;;;;;;;3.47;1.90;;;;;;;;;;6322560;28;20176;-65
2023/10/28 01:21:40;;;;;;;4.03;1.60;;;;;;;;;;6296763;28;20284;-65
2023/10/28 01:24:41;;;;;;;8.27;2.23;;;;;;;;;;6305936;28;20208;-65
2023/10/28 01:27:44;;;;;;;1.80;1.60;;;;;;;;;;6303519;28;20285;-65
2023/10/28 01:30:45;;;;;;;3.23;1.77;;;;;;;;;;6305056;28;20200;-65
2023/10/28 01:33:46;;;;;;;3.07;1.70;;;;;;;;;;6305609;28;20199;-65
2023/10/28 01:36:48;;;;;;;1.67;1.37;;;;;;;;;;6299321;28;20212;-65
2023/10/28 01:39:51;;;;;;;3.43;1.97;;;;;;;;;;6301661;28;20188;-65
2023/10/28 01:42:52;;;;;;;4.47;2.40;;;;;;;;;;6292790;28;20201;-65
2023/10/28 01:45:53;;;;;;;1.87;1.50;;;;;;;;;;6300084;28;20214;-65
2023/10/28 01:48:55;;;;;;;3.67;1.70;;;;;;;;;;6303326;28;20242;-65
2023/10/28 01:51:56;;;;;;;2.03;1.60;;;;;;;;;;6300894;28;20197;-65
2023/10/28 01:54:57;;;;;;;2.73;1.60;;;;;;;;;;6297548;28;20200;-65
2023/10/28 01:57:58;;;;;;;4.33;1.70;;;;;;;;;;6295605;28;20216;-65
2023/10/28 02:00:59;;;;;;;2.83;1.70;;;;;;;;;;6312956;28;20188;-65
2023/10/28 02:04:06;;;;;;;4.50;1.80;;;;;;;;;;6303483;28;20216;-65
2023/10/28 02:07:07;;;;;;;4.00;2.10;;;;;;;;;;6303477;28;20189;-65
2023/10/28 02:10:09;;;;;;;5.60;2.10;;;;;;;;;;6304773;28;20207;-65
2023/10/28 02:13:10;;;;;;;3.87;1.80;;;;;;;;;;6299574;28;20216;-65
2023/10/28 02:16:12;;;;;;;3.57;1.30;;;;;;;;;;6304735;28;20216;-65
2023/10/28 02:19:14;;;;;;;4.33;1.43;;;;;;;;;;6295844;28;20199;-65
2023/10/28 02:22:15;;;;;;;4.70;1.40;;;;;;;;;;6304217;28;20279;-65
2023/10/28 02:25:16;;;;;;;2.57;1.67;;;;;;;;;;6294048;28;20234;-65
2023/10/28 02:28:17;;;;;;;2.73;1.73;;;;;;;;;;6296816;28;20613;-65
2023/10/28 02:31:18;;;;;;;3.33;1.50;;;;;;;;;;6290943;28;20235;-65
2023/10/28 02:34:19;;;;;;;1.60;1.23;;;;;;;;;;6297441;28;20228;-65
2023/10/28 02:37:20;;;;;;;4.00;1.77;;;;;;;;;;6293984;28;20370;-65
2023/10/28 02:40:21;;;;;;;1.73;1.57;;;;;;;;;;6308970;28;20275;-65
2023/10/28 02:43:22;;;;;;;1.40;1.30;;;;;;;;;;6320678;28;20199;-65
2023/10/28 02:46:24;;;;;;;2.63;1.43;;;;;;;;;;6303540;28;20288;-65
2023/10/28 02:49:25;;;;;;;2.87;1.43;;;;;;;;;;6309711;28;20192;-65
2023/10/28 02:52:26;;;;;;;2.17;1.47;;;;;;;;;;6294460;28;20200;-65
2023/10/28 02:55:27;;;;;;;2.10;1.30;;;;;;;;;;6294773;28;20273;-65
2023/10/28 02:58:28;;;;;;;2.43;1.43;;;;;;;;;;6304492;28;20268;-65
2023/10/28 03:01:30;;;;;;;3.63;1.73;;;;;;;;;;6288102;28;20185;-65
2023/10/28 03:04:31;;;;;;;3.30;2.10;;;;;;;;;;6297274;28;20193;-65
2023/10/28 03:07:33;;;;;;;2.53;1.90;;;;;;;;;;6291506;28;20188;-65
2023/10/28 03:10:34;;;;;;;3.83;1.40;;;;;;;;;;6296408;28;20223;-65
2023/10/28 03:13:35;;;;;;;4.30;1.40;;;;;;;;;;6300051;28;20212;-65
2023/10/28 03:16:36;;;;;;;2.77;1.43;;;;;;;;;;6296667;28;20258;-65
2023/10/28 03:19:36;;;;;;;3.70;1.40;;;11.80;99.90;;;;;;6308698;28;20184;-65
2023/10/28 03:22:38;;;;;;;4.07;1.40;;;8.40;99.90;;;;;;6283466;28;20188;-65
2023/10/28 03:25:38;;;;;;;5.87;1.37;;;8.40;99.90;;;;;;6302181;28;20229;-65
2023/10/28 03:28:39;;;;;;;4.20;1.53;;;8.40;99.90;;;;;;6273738;28;20184;-65
2023/10/28 03:31:40;;;;;;;2.50;1.57;;;8.30;99.90;;;;;;6300778;28;20274;-65
2023/10/28 03:34:41;;;;;;;2.00;1.53;;;8.30;99.90;;;;;;6287978;28;20234;-65
2023/10/28 03:37:43;;;;;;;2.10;1.30;;;8.30;99.90;;;;;;6281774;28;20269;-65
2023/10/28 03:40:44;;;;;;;1.93;1.53;;;8.20;99.90;;;;;;6282725;28;20182;-65
2023/10/28 03:43:45;;;;;;;2.57;1.77;;;8.20;99.90;;;;;;6279104;28;20189;-65
2023/10/28 03:46:46;;;;;;;1.20;1.10;;;;;;;;;;6285851;28;20192;-63
2023/10/28 03:49:47;;;;;;;2.60;1.60;;;;;;;;;;6311649;28;20177;-65
2023/10/28 03:52:48;;;;;;;3.33;1.70;;;;;;;;;;6309468;28;20243;-65
2023/10/28 03:55:49;;;;;;;4.50;1.40;;;8.10;99.90;;;;;;6294383;28;20235;-65
2023/10/28 03:58:49;;;;;;;1.90;1.40;;;8.00;99.90;;;;;;6270015;28;20180;-65
2023/10/28 04:01:50;;;;;;;1.83;1.50;;;7.90;99.90;;;;;;6303074;28;20180;-65
2023/10/28 04:04:51;;;;;;;1.50;1.40;;;7.80;99.90;;;;;;6298222;28;20185;-65
2023/10/28 04:07:52;;;;;;;4.50;2.27;;;7.80;99.90;;;;;;6289574;28;20184;-65
2023/10/28 04:10:52;;;;;;;2.77;1.43;;;7.80;99.90;;;;;;6294559;28;20283;-65
2023/10/28 04:13:53;;;;;;;3.13;1.60;;;7.80;99.90;;;;;;6291161;28;20184;-65
2023/10/28 04:16:54;;;;;;;2.97;1.80;;;7.80;99.90;;;;;;6289553;28;20212;-65
2023/10/28 04:19:54;;;;;;;1.90;1.40;;;7.80;99.90;;;;;;6297449;28;20180;-65
2023/10/28 04:22:55;;;;;;;4.40;1.43;;;7.70;99.90;;;;;;6305521;28;20188;-65
2023/10/28 04:25:56;;;;;;;3.27;1.80;;;7.70;99.90;;;;;;6280914;28;20200;-65
2023/10/28 04:29:00;;;;;;;3.20;1.73;;;7.70;99.90;;;;;;6299906;28;20287;-65
2023/10/28 04:32:00;;;;;;;4.33;2.00;;;7.70;99.90;;;;;;6280888;28;20208;-65
2023/10/28 04:35:01;;;;;;;5.70;1.97;;;7.80;99.90;;;;;;6282704;28;20236;-65
2023/10/28 04:38:02;;;;;;;1.77;1.57;;;7.80;99.90;;;;;;6283278;28;20264;-65
2023/10/28 04:41:03;;;;;;;1.90;1.60;;;7.80;99.90;;;;;;6289736;28;20192;-65
2023/10/28 04:44:04;;;;;;;5.13;1.80;;;8.00;99.90;;;;;;6285766;28;20200;-65
2023/10/28 04:47:04;;;;;;;2.80;1.60;;;8.00;99.90;;;;;;6300857;28;20200;-65
2023/10/28 04:50:06;;;;;;;5.03;1.40;;;8.00;99.90;;;;;;6294940;28;20189;-65
2023/10/28 04:53:07;;;;;;;3.37;1.87;;;8.00;99.90;;;;;;6324173;28;20189;-65
2023/10/28 04:56:08;;;;;;;1.90;1.50;;;8.00;99.90;;;;;;6306900;28;20295;-65
2023/10/28 04:59:10;;;;;;;3.17;1.70;;;8.00;99.90;;;;;;6281192;28;20197;-65
2023/10/28 05:02:11;;;;;;;2.23;1.50;;;8.10;99.90;;;;;;6275114;28;20234;-65
2023/10/28 05:05:14;;;;;;;1.47;1.37;;;8.10;99.90;;;;;;6302300;28;20188;-65
2023/10/28 05:08:16;;;;;;;6.00;1.70;;;8.20;99.90;;;;;;6301730;28;20199;-65
2023/10/28 05:11:16;;;;;;;2.17;1.70;;;8.10;99.90;;;;;;6268809;28;20243;-65
2023/10/28 05:14:17;;;;;;;1.93;1.67;;;8.20;99.90;;;;;;6294432;28;20222;-64
2023/10/28 05:17:18;;;;;;;2.83;1.50;;;8.20;99.90;;;;;;6289608;28;20211;-65
2023/10/28 05:20:20;;;;;;;3.03;2.30;;;8.20;99.90;;;;;;6305078;28;20216;-64
2023/10/28 05:23:22;;;;;;;3.43;2.80;;;8.30;99.90;;;;;;6287687;28;20271;-65
2023/10/28 05:26:23;;;;;;;4.77;2.00;;;8.20;99.90;;;;;;6285878;28;20188;-65
2023/10/28 05:29:23;;;;;;;5.90;2.37;;;8.20;99.90;;;;;;6286180;28;20191;-65
2023/10/28 05:32:24;;;;;;;3.87;2.07;;;8.20;99.90;;;;;;6285727;28;20284;-65
2023/10/28 05:35:25;;;;;;;2.17;1.83;;;8.30;99.90;;;;;;6286277;28;20322;-65
2023/10/28 05:38:26;;;;;;;2.47;2.00;;;8.30;99.90;;;;;;6292832;28;20231;-65
2023/10/28 05:41:26;;;;;;;1.83;1.40;;;8.30;99.90;;;;;;6269072;28;20190;-65
2023/10/28 05:44:27;;;;;;;2.50;1.70;;;8.30;99.90;;;;;;6270754;28;20299;-65
2023/10/28 05:47:28;;;;;;;1.80;1.60;;;8.40;99.90;;;;;;6272610;28;20195;-65
2023/10/28 05:50:28;;;;;;;2.23;1.67;;;8.40;99.90;;;;;;6297622;28;20192;-65
2023/10/28 05:53:29;;;;;;;2.30;1.83;;;8.40;99.90;;;;;;6280987;28;20227;-65
2023/10/28 05:56:31;;;;;;;2.27;1.50;;;8.50;99.90;;;;;;6286014;28;20267;-65
2023/10/28 05:59:31;;;;;;;4.20;1.73;;;8.50;99.90;;;;;;6280165;28;20195;-65
2023/10/28 06:02:32;;;;;;;3.50;1.93;;;8.50;99.90;;;;;;6303331;28;20216;-65
2023/10/28 06:05:34;;;;;;;2.83;1.90;;;8.50;99.90;;;;;;6279879;28;20185;-65
2023/10/28 06:08:34;;;;;;;2.10;1.83;;;8.40;99.90;;;;;;6277042;28;20189;-65
2023/10/28 06:11:35;;;;;;;2.23;1.70;;;8.50;99.90;;;;;;6273393;28;20327;-65
2023/10/28 06:14:36;;;;;;;2.13;1.90;;;8.60;99.90;;;;;;6307842;28;20181;-65
2023/10/28 06:17:37;;;;;;;2.20;2.00;;;8.60;99.90;;;;;;6284693;28;20247;-65
2023/10/28 06:20:38;;;;;;;2.30;1.80;;;8.80;99.90;;;;;;6268656;28;20189;-65
2023/10/28 06:23:39;;;;;;;2.13;1.87;;;8.90;99.90;;;;;;6292111;28;20267;-65
2023/10/28 06:26:39;;;;;;;2.77;2.03;;;8.90;99.90;;;;;;6285185;28;20188;-65
2023/10/28 06:29:40;;;;;;;3.10;2.27;;;8.90;99.90;;;;;;6269140;28;20188;-65
2023/10/28 06:32:42;;;;;;;2.20;2.00;;;9.00;99.90;;;;;;6304098;28;20188;-65
2023/10/28 06:35:42;;;;;;;2.63;2.00;;;9.00;99.90;;;;;;6298262;28;20233;-65
2023/10/28 06:38:43;;;;;;;3.03;1.93;;;9.00;99.90;;;;;;6305210;28;20198;-65
2023/10/28 06:41:44;;;;;;;2.17;1.80;;;9.10;99.90;;;;;;6278255;28;20185;-65
2023/10/28 06:44:45;;;;;;;3.87;1.80;;;9.10;99.90;;;;;;6293686;28;20237;-65
2023/10/28 06:47:46;;;;;;;2.20;2.00;;;9.20;99.90;;;;;;6271329;28;20188;-65
2023/10/28 06:50:48;;;;;;;3.20;1.70;;;9.20;99.90;;;;;;6278087;28;20192;-65
2023/10/28 06:53:48;;;;;;;3.07;2.43;;;9.30;99.90;;;;;;6270384;28;20188;-65
2023/10/28 06:56:50;;;;;;;3.53;2.50;;;9.30;99.90;;;;;;6302887;28;20236;-65
2023/10/28 06:59:51;;;;;;;2.47;2.23;;;9.30;99.90;;;;;;6280001;28;20193;-65
2023/10/28 07:02:51;;;;;;;2.57;2.03;;;9.40;99.90;;;;;;6295485;28;20307;-65
2023/10/28 07:05:52;;;;;;;3.47;2.10;;;9.40;99.90;;;;;;6286367;28;20188;-65
2023/10/28 07:08:53;;;;;;;4.83;2.00;;;9.40;99.90;;;;;;6271143;28;20188;-65
2023/10/28 07:11:53;;;;;;;3.63;2.20;;;9.30;99.90;;;;;;6286286;28;20226;-65
2023/10/28 07:14:58;;;;;;;2.57;2.20;;;9.30;99.90;;;;;;6286987;28;20193;-65
2023/10/28 07:17:58;;;;;;;5.20;3.00;;;9.20;99.90;;;;;;6296236;28;20277;-65
2023/10/28 07:21:00;;;;;;;5.83;3.00;;;9.40;99.90;;;;;;6271620;28;20188;-65
2023/10/28 07:24:01;;;;;;;5.20;2.77;;;9.40;99.90;;;;;;6320902;28;20176;-65
2023/10/28 07:27:05;;;;;;;3.37;3.00;;;9.40;99.90;;;;;;6295817;28;20192;-64
2023/10/28 07:30:06;;;;;;;3.20;2.57;;;9.40;99.90;;;;;;6277899;28;20258;-65
2023/10/28 07:33:07;;;;;;;4.47;2.30;;;9.40;99.90;;;;;;6280229;28;20197;-65
2023/10/28 07:36:08;;;;;;;2.50;2.30;;;9.40;99.90;;;;;;6270266;28;20239;-65
2023/10/28 07:39:09;;;;;;;3.03;2.63;;;9.40;99.90;;;;;;6294781;28;20188;-65
2023/10/28 07:42:09;;;;;;;5.57;2.80;;;9.50;99.90;;;;;;6278710;28;20195;-65
2023/10/28 07:45:10;;;;;;;3.27;2.90;;;9.50;99.90;;;;;;6296595;28;20188;-65
2023/10/28 07:48:11;;;;;;;4.47;2.50;;;9.60;99.90;;;;;;6289188;28;20227;-65
2023/10/28 07:51:16;;;;;;;3.43;2.47;;;9.70;99.90;;;;;;6313624;28;20196;-65
2023/10/28 07:54:17;;;;;;;3.00;2.70;;;9.80;99.90;;;;;;6275724;28;21409;-65
2023/10/28 07:57:17;;;;;;;2.57;2.37;;;9.90;99.90;;;;;;6303083;28;20216;-65
2023/10/28 08:00:18;;;;;;;2.50;2.10;;;-13.70;99.90;;;;;;6298580;28;20176;-65
2023/10/28 08:03:19;;;;;;;5.23;2.20;;;;;;;;;;6289970;28;20185;-65
2023/10/28 08:06:20;;;;;;;2.47;1.90;;;;;;;;;;6295048;28;20247;-65
2023/10/28 08:09:22;;;;;;;3.07;1.87;;;;;;;;;;6301839;28;20192;-65
2023/10/28 08:12:25;;;;;;;5.47;1.70;;;;;;;;;;6284390;28;20190;-65
2023/10/28 08:15:29;;;;;;;3.23;1.67;;;;;;;;;;6304195;28;20189;-65
2023/10/28 08:18:31;;;;;;;1.43;1.30;;;;;;;;;;6313136;28;20206;-65
2023/10/28 08:21:33;;;;;;;2.10;1.57;;;;;;;;;;6309668;28;20204;-65
2023/10/28 08:24:34;;;;;;;1.90;1.40;;;;;;;;;;6301674;28;20233;-65
2023/10/28 08:27:35;;;;;;;1.73;1.20;;;;;;;;;;6291272;28;20216;-65
2023/10/28 08:30:36;;;;;;;2.20;1.30;;;;;;;;;;6298889;28;20227;-65
2023/10/28 08:33:38;;;;;;;2.10;1.20;;;;;;;;;;6305992;28;20201;-65
2023/10/28 08:36:39;;;;;;;1.87;1.20;;;;;;;;;;6313734;28;20294;-65
2023/10/28 08:39:41;;;;;;;1.23;1.13;;;;;;;;;;6302710;28;20193;-65
2023/10/28 08:42:42;;;;;;;1.50;1.20;;;;;;;;;;6293953;28;20189;-65
2023/10/28 08:45:45;;;;;;;1.80;1.20;;;;;;;;;;6313086;28;20230;-65
2023/10/28 08:48:46;;;;;;;2.27;1.50;;;;;;;;;;6313155;28;20188;-65
2023/10/28 08:51:49;;;;;;;1.23;0.90;;;;;;;;;;6303044;28;20225;-64
2023/10/28 08:54:50;;;;;;;2.77;1.43;;;;;;;;;;6313408;28;20212;-65
2023/10/28 08:57:52;;;;;;;2.13;1.43;;;;;;;;;;6313506;28;20250;-65
2023/10/28 09:00:58;;;;;;;1.53;1.40;;;;;;;;;;6290151;28;20188;-65
2023/10/28 09:04:01;;;;;;;3.73;2.87;;;;;;;;;;6322049;28;20181;-65
2023/10/28 09:07:04;;;;;;;8.10;1.40;;;;;;;;;;6321096;28;20189;-65
2023/10/28 09:10:06;;;;;;;1.30;1.20;;;;;;;;;;6317563;28;20188;-64
2023/10/28 09:13:07;;;;;;;1.77;1.00;;;;;;;;;;6300647;28;20196;-65
2023/10/28 09:16:09;;;;;;;1.23;1.07;;;;;;;;;;6298441;28;20255;-65
2023/10/28 09:19:20;;;;;;;1.33;1.10;;;;;;;;;;6284272;28;20192;-65
2023/10/28 09:22:21;;;;;;;2.00;1.30;;;;;;;;;;6309577;28;20192;-65
2023/10/28 09:25:23;;;;;;;3.83;2.40;;;;;;;;;;6292417;28;20188;-65
2023/10/28 09:28:25;;;;;;;1.83;1.30;;;;;;;;;;6321697;28;20198;-65
2023/10/28 09:31:26;;;;;;;17.10;8.33;;;;;;;;;;6300001;28;20192;-65
2023/10/28 09:34:27;;;;;;;10.60;6.77;;;;;;;;;;6321426;28;20216;-64
2023/10/28 09:37:28;;;;;;;5.43;3.63;;;;;;;;;;6295568;28;20221;-65
2023/10/28 09:40:29;;;;;;;2.40;1.47;;;;;;;;;;6293864;28;20287;-65
2023/10/28 09:43:32;;;;;;;2.67;1.43;;;;;;;;;;6323562;28;20192;-65
2023/10/28 09:46:36;;;;;;;2.63;1.50;;;;;;;;;;6304628;28;20192;-65
2023/10/28 09:49:40;;;;;;;1.40;1.20;;;;;;;;;;6308612;28;20236;-65
2023/10/28 09:52:48;;;;;;;1.67;1.07;;;;;;;;;;6319531;28;20278;-65
2023/10/28 09:55:49;;;;;;;1.80;1.20;;;;;;;;;;6306323;28;20267;-64
2023/10/28 09:58:58;;;;;;;1.27;1.17;;;;;;;;;;6294911;28;20199;-65
2023/10/28 10:02:12;;;;;;;1.50;1.10;;;;;;;;;;6307785;28;20181;-64
2023/10/28 10:05:20;;;;;;;1.23;0.80;;;;;;;;;;6309044;28;20193;-65
2023/10/28 10:08:22;;;;;;;1.10;1.00;;;;;;;;;;6307897;28;20246;-65
2023/10/28 10:11:24;;;;;;;1.80;1.00;;;;;;;;;;6294572;28;20198;-65
2023/10/28 10:14:29;;;;;;;1.10;1.00;;;;;;;;;;6319110;28;20258;-65
2023/10/28 10:17:37;;;;;;;1.40;0.80;;;;;;;;;;6320488;28;20240;-65
2023/10/28 10:20:43;;;;;;;1.33;1.20;;;;;;;;;;6300507;28;20212;-65
2023/10/28 10:23:45;;;;;;;1.53;1.30;;;;;;;;;;6319915;28;20191;-65
2023/10/28 10:26:56;;;;;;;0.80;0.80;;;;;;;;;;6316386;28;20201;-65
2023/10/28 10:30:03;;;;;;;1.00;0.90;;;;;;;;;;6310892;28;20193;-65
2023/10/28 10:33:04;;;;;;;2.47;0.90;;;;;;;;;;6310322;28;20265;-65
2023/10/28 10:36:17;;;;;;;0.90;0.90;;;;;;;;;;6302053;28;20260;-65
2023/10/28 10:39:19;;;;;;;1.37;1.07;;;;;;;;;;6314865;28;20196;-65
2023/10/28 10:42:20;;;;;;;1.37;1.00;;;;;;;;;;6284605;28;20194;-65
2023/10/28 10:45:22;;;;;;;1.07;0.90;;;;;;;;;;6298565;28;20192;-65
2023/10/28 10:48:25;;;;;;;2.80;1.10;;;;;;;;;;6298041;28;20193;-65
2023/10/28 10:51:27;;;;;;;1.83;1.07;;;;;;;;;;6306848;28;20200;-65
2023/10/28 10:54:33;;;;;;;1.87;1.40;;;;;;;;;;6284030;28;20200;-65
2023/10/28 10:57:36;;;;;;;1.53;1.43;;;;;;;;;;6303504;28;20216;-65
2023/10/28 11:00:37;;;;;;;2.87;2.07;;;;;;;;;;6313675;28;20185;-65
2023/10/28 11:03:38;;;;;;;1.70;1.60;;;;;;;;;;6320928;28;20192;-65
2023/10/28 11:06:40;;;;;;;1.30;1.20;;;;;;;;;;6289254;28;20197;-65
2023/10/28 11:09:42;;;;;;;1.40;1.00;;;;;;;;;;6313974;28;20335;-65
2023/10/28 11:12:43;;;;;;;1.57;1.47;;;;;;;;;;6297146;28;20193;-65
2023/10/28 11:15:44;;;;;;;1.50;1.03;;;;;;;;;;6296207;28;20192;-65
2023/10/28 11:18:45;;;;;;;1.53;1.00;;;;;;;;;;6296246;28;20189;-65
2023/10/28 11:21:47;;;;;;;2.53;1.40;;;;;;;;;;6289194;28;20212;-65
2023/10/28 11:24:53;;;;;;;1.70;1.20;;;;;;;;;;6311693;28;20189;-65
2023/10/28 11:27:56;;;;;;;1.37;1.27;;;;;;;;;;6303713;28;20220;-65
2023/10/28 11:30:57;;;;;;;1.20;1.00;;;;;;;;;;6285450;28;20198;-65
2023/10/28 11:33:58;;;;;;;1.03;0.90;;;;;;;;;;6295372;28;20196;-65
2023/10/28 11:36:59;;;;;;;0.80;0.80;;;;;;;;;;6296664;28;20221;-65
2023/10/28 11:40:04;;;;;;;0.97;0.97;;;;;;;;;;6290977;28;20221;-65
2023/10/28 11:43:05;;;;;;;1.30;0.93;;;;;;;;;;6291699;28;20209;-66
2023/10/28 11:46:07;;;;;;;0.90;0.90;;;;;;;;;;6313753;28;20498;-65
2023/10/28 11:49:08;;;;;;;1.57;1.00;;;;;;;;;;6304382;28;20241;-65
2023/10/28 11:52:11;;;;;;;2.43;0.90;;;;;;;;;;6300583;28;20196;-65
2023/10/28 11:55:12;;;;;;;1.73;1.17;;;;;;;;;;6317863;28;20203;-65
2023/10/28 11:58:13;;;;;;;0.80;0.80;;;;;;;;;;6319317;28;20212;-66
2023/10/28 12:01:14;;;;;;;1.20;1.10;;;;;;;;;;6290081;28;20279;-65
2023/10/28 12:04:15;;;;;;;1.33;1.23;;;;;;;;;;6292150;28;20225;-66
2023/10/28 12:07:17;;;;;;;2.20;1.10;;;;;;;;;;6304066;28;20188;-65
2023/10/28 12:10:18;;;;;;;0.80;0.67;;;;;;;;;;6318639;28;20184;-65
2023/10/28 12:13:19;;;;;;;2.57;0.90;;;;;;;;;;6297671;28;20200;-66
2023/10/28 12:16:20;;;;;;;1.07;0.83;;;;;;;;;;6299679;28;20216;-65
2023/10/28 12:19:22;;;;;;;1.07;0.87;;;;;;;;;;6292666;28;20224;-65
2023/10/28 12:22:23;;;;;;;0.80;0.80;;;;;;;;;;6302652;28;20212;-66
2023/10/28 12:25:24;;;;;;;1.30;1.10;;;;;;;;;;6319319;28;20184;-66
2023/10/28 12:28:26;;;;;;;2.43;1.30;;;;;;;;;;6293108;28;20231;-65
2023/10/28 12:31:27;;;;;;;1.50;0.90;;;;;;;;;;6300257;28;20239;-66
2023/10/28 12:34:28;;;;;;;1.23;0.77;;;;;;;;;;6294963;28;20251;-65
2023/10/28 12:37:29;;;;;;;0.67;0.67;;;;;;;;;;6302543;28;20271;-66
2023/10/28 12:40:32;;;;;;;1.37;0.80;;;;;;;;;;6293410;28;20196;-66
2023/10/28 12:43:33;;;;;;;1.43;0.93;;;;;;;;;;6312958;28;20208;-66
2023/10/28 12:46:34;;;;;;;0.70;0.70;;;;;;;;;;6322655;28;20197;-66
2023/10/28 12:49:35;;;;;;;1.10;1.00;;;;;;;;;;6306782;28;20195;-65
2023/10/28 12:52:36;;;;;;;0.73;0.73;;;;;;;;;;6300151;28;20200;-65
2023/10/28 12:55:37;;;;;;;0.80;0.80;;;;;;;;;;6306582;28;20185;-65
2023/10/28 12:58:38;;;;;;;2.63;0.73;;;;;;;;;;6304250;28;20217;-65
2023/10/28 13:01:40;;;;;;;0.87;0.67;;;;;;;;;;6319938;28;20197;-65
2023/10/28 13:04:41;;;;;;;0.60;0.60;;;;;;;;;;6323850;28;20180;-66
2023/10/28 13:07:42;;;;;;;0.67;0.60;;;;;;;;;;6298878;28;20203;-66
2023/10/28 13:10:43;;;;;;;0.70;0.70;;;;;;;;;;6316240;28;20201;-65
2023/10/28 13:13:45;;;;;;;2.23;0.80;;;;;;;;;;6299570;28;20195;-65
2023/10/28 13:16:47;;;;;;;0.80;0.80;;;;;;;;;;6294513;28;20209;-65
2023/10/28 13:19:50;;;;;;;1.27;0.90;;;;;;;;;;6305834;28;20195;-65
2023/10/28 13:22:51;;;;;;;1.13;0.97;;;;;;;;;;6314347;28;20193;-65
2023/10/28 13:25:53;;;;;;;0.97;0.70;;;10.20;99.90;;;;;;6321161;28;20221;-66
2023/10/28 13:28:54;;;;;;;1.70;0.90;;;;;;;;;;6289956;28;20189;-66
2023/10/28 13:31:55;;;;;;;2.87;1.07;;;15.40;84.70;;;;;;6306511;28;20226;-66
2023/10/28 13:34:56;;;;;;;1.53;0.80;;;;;;;;;;6299215;28;20237;-66
2023/10/28 13:37:57;;;;;;;1.60;0.90;;;15.90;75.70;;;;;;6290516;28;20212;-66
2023/10/28 13:40:58;;;;;;;1.93;1.57;;;15.60;82.30;;;;;;6284842;28;20190;-66
2023/10/28 13:44:00;;;;;;;2.30;1.77;;;15.80;81.30;;;;;;6301805;28;20208;-66
2023/10/28 13:47:00;;;;;;;0.87;0.80;;;15.80;80.40;;;;;;6303844;28;20185;-66
2023/10/28 13:50:04;;;;;;;1.17;0.60;;;;;;;;;;6292656;28;20306;-66
2023/10/28 13:53:06;;;;;;;0.73;0.70;;;;;;;;;;6298810;28;20246;-66
2023/10/28 13:56:07;;;;;;;0.40;0.40;;;15.50;83.00;;;;;;6303068;28;20216;-66
2023/10/28 13:59:08;;;;;;;0.67;0.67;;;;;;;;;;6289515;28;20285;-65
2023/10/28 14:02:09;;;;;;;2.13;0.87;;;15.00;79.20;;;;;;6301657;28;20200;-66
2023/10/28 14:05:11;;;;;;;0.80;0.60;;;14.60;75.80;;;;;;6268604;28;20203;-66
2023/10/28 14:08:12;;;;;;;0.70;0.70;;;14.50;81.60;;;;;;6302298;28;20238;-66
2023/10/28 14:11:13;;;;;;;0.93;0.77;;;14.50;85.00;;;;;;6304880;28;20195;-66
2023/10/28 14:14:14;;;;;;;1.23;0.67;;;14.50;83.80;;;;;;6282044;28;20253;-66
2023/10/28 14:17:15;;;;;;;0.80;0.80;;;14.50;83.70;;;;;;6284756;28;20235;-66
2023/10/28 14:20:16;;;;;;;0.80;0.60;;;14.40;80.30;;;;;;6299260;28;20230;-65
2023/10/28 14:23:17;;;;;;;1.30;0.50;;;;;;;;;;6303585;28;20208;-66
2023/10/28 14:26:18;;;;;;;0.50;0.50;;;;;;;;;;6298604;28;20223;-65
2023/10/28 14:29:20;;;;;;;0.67;0.67;;;;;;;;;;6296659;28;20196;-66
2023/10/28 14:32:21;;;;;;;0.60;0.50;;;;;;;;;;6306166;28;20193;-66
2023/10/28 14:35:23;;;;;;;1.93;0.80;;;;;;;;;;6297714;28;20254;-66
2023/10/28 14:38:24;;;;;;;1.30;0.73;;;;;;;;;;6294882;28;20249;-66
2023/10/28 14:41:25;;;;;;;1.00;0.70;;;;;;;;;;6289387;28;20192;-66
2023/10/28 14:44:27;;;;;;;3.73;0.80;;;;;;;;;;6316362;28;20279;-66
2023/10/28 14:47:28;;;;;;;2.30;0.50;;;;;;;;;;6294887;28;20205;-66
2023/10/28 14:50:29;;;;;;;1.90;0.90;;;14.30;80.10;;;;;;6298831;28;20261;-65
2023/10/28 14:53:30;;;;;;;0.83;0.63;;;;;;;;;;6308339;28;20192;-65
2023/10/28 14:56:31;;;;;;;0.43;0.43;;;;;;;;;;6298755;28;20209;-65
2023/10/28 14:59:32;;;;;;;0.83;0.50;;;;;;;;;;6312671;28;20241;-65
2023/10/28 15:02:33;;;;;;;0.93;0.60;;;;;;;;;;6294066;28;20194;-65
2023/10/28 15:05:34;;;;;;;0.90;0.70;;;;;;;;;;6295731;28;20249;-65
2023/10/28 15:08:35;;;;;;;1.80;0.57;;;;;;;;;;6291159;28;20197;-66
2023/10/28 15:11:36;;;;;;;1.90;0.57;;;;;;;;;;6302117;28;20200;-66
2023/10/28 15:14:37;;;;;;;2.63;0.80;;;;;;;;;;6289493;28;21185;-65
2023/10/28 15:17:39;;;;;;;2.50;0.90;;;;;;;;;;6297012;28;20209;-65
2023/10/28 15:20:41;;;;;;;1.23;0.80;;;;;;;;;;6303817;28;20193;-65
2023/10/28 15:23:43;;;;;;;1.17;0.93;;;;;;;;;;6296944;28;20197;-65
2023/10/28 15:26:44;;;;;;;2.00;0.80;;;;;;;;;;6298505;28;20196;-65
2023/10/28 15:29:45;;;;;;;0.83;0.70;;;;;;;;;;6283678;28;20220;-65
2023/10/28 15:32:46;;;;;;;2.37;0.90;;;;;;;;;;6298623;28;20215;-65
2023/10/28 15:35:47;;;;;;;3.80;1.07;;;;;;;;;;6293341;28;20243;-65
2023/10/28 15:38:48;;;;;;;3.23;1.00;;;;;;;;;;6315855;28;20303;-65
2023/10/28 15:41:50;;;;;;;2.03;1.00;;;;;;;;;;6294189;28;20181;-65
2023/10/28 15:44:51;;;;;;;1.43;0.80;;;;;;;;;;6308081;28;20189;-65
2023/10/28 15:47:52;;;;;;;1.63;1.20;;;;;;;;;;6299561;28;20215;-65
2023/10/28 15:50:58;;;;;;;8.57;5.27;;;;;;;;;;6314018;28;20301;-65
2023/10/28 15:54:02;;;;;;;8.10;3.20;;;;;;;;;;6316031;28;20189;-65
2023/10/28 15:57:03;;;;;;;2.23;1.40;;;;;;;;;;6292186;28;20220;-65
2023/10/28 16:00:07;;;;;;;1.10;1.00;;;;;;;;;;6295663;28;20247;-65
2023/10/28 16:03:10;;;;;;;2.40;1.20;;;;;;;;;;6299462;28;20198;-65
2023/10/28 16:06:11;;;;;;;3.27;1.77;;;;;;;;;;6299208;28;20199;-65
2023/10/28 16:09:14;;;;;;;2.73;1.80;;;;;;;;;;6295015;28;20195;-65
2023/10/28 16:12:16;;;;;;;1.30;1.20;;;;;;;;;;6326382;28;20203;-65
2023/10/28 16:15:20;;;;;;;3.73;1.43;;;;;;;;;;6298220;28;20283;-66
2023/10/28 16:18:21;;;;;;;2.53;1.70;;;;;;;;;;6299513;28;20231;-65
2023/10/28 16:21:22;;;;;;;2.67;1.83;;;;;;;;;;6306381;28;20192;-65
2023/10/28 16:24:23;;;;;;;5.03;1.60;;;;;;;;;;6298447;28;20200;-65
2023/10/28 16:27:25;;;;;;;2.23;1.57;;;;;;;;;;6296489;28;20689;-65
2023/10/28 16:30:27;;;;;;;2.90;1.70;;;;;;;;;;6305498;28;20263;-65
2023/10/28 16:33:28;;;;;;;2.40;1.80;;;;;;;;;;6285860;28;20196;-65
2023/10/28 16:36:30;;;;;;;3.87;2.50;;;;;;;;;;6293778;28;20305;-65
2023/10/28 16:39:31;;;;;;;6.73;5.00;;;;;;;;;;6294433;28;20196;-65
2023/10/28 16:42:34;;;;;;;6.17;3.40;;;;;;;;;;6302370;28;20201;-65
2023/10/28 16:45:35;;;;;;;6.17;2.17;;;;;;;;;;6317291;28;20185;-65
2023/10/28 16:48:36;;;;;;;2.90;2.60;;;;;;;;;;6301770;28;20193;-65
2023/10/28 16:51:38;;;;;;;3.20;2.60;;;;;;;;;;6323274;28;20193;-65
2023/10/28 16:54:39;;;;;;;2.47;2.10;;;;;;;;;;6298719;28;20211;-65
2023/10/28 16:57:42;;;;;;;1.97;1.80;;;;;;;;;;6305137;28;20300;-65
2023/10/28 17:00:43;;;;;;;2.17;1.97;;;;;;;;;;6303414;28;20276;-65
2023/10/28 17:03:44;;;;;;;5.57;2.23;;;;;;;;;;6311614;28;20217;-65
2023/10/28 17:06:47;;;;;;;1.90;1.63;;;;;;;;;;6300426;28;20188;-65
2023/10/28 17:09:51;;;;;;;4.23;2.23;;;;;;;;;;6310795;28;20288;-65
2023/10/28 17:12:54;;;;;;;3.20;2.90;;;;;;;;;;6297344;28;20189;-65
2023/10/28 17:15:56;;;;;;;6.93;5.27;;;;;;;;;;6303228;28;20203;-65
2023/10/28 17:19:02;;;;;;;6.53;5.60;;;;;;;;;;6299877;28;20197;-65
2023/10/28 17:22:03;;;;;;;5.67;5.07;;;;;;;;;;6302617;28;20205;-65
2023/10/28 17:25:05;;;;;;;6.80;4.53;;;;;;;;;;6316457;28;20196;-65